KSNS/SNS METAR and TAF weather

Enter ICAO airport designator
Station Type Date Time Source
KSNS METAR 2022/10/01 07:53 UTC NOAA

KSNS 010753Z AUTO 33004KT 7SM OVC004 16/13 A2984 RMK AO2 SLP114 T01560133 402440122 TSNO $


Station Type Date Time Source
KSNS Decoded METAR 2022/10/01 07:53 UTC NOAA

SALINAS MUNICIPAL AIRPORT, CA, United States (KSNS) 36-40N 121-36W 30M
Oct 01, 2022 - 03:53 AM EDT / 2022.10.01 0753 UTC
Wind: from the NNW (330 degrees) at 5 MPH (4 KT):0
Visibility: 7 mile(s):0
Sky conditions: overcast
Temperature: 60.1 F (15.6 C)
Dew Point: 55.9 F (13.3 C)
Relative Humidity: 86%
Pressure (altimeter): 29.84 in. Hg (1010 hPa)
ob: KSNS 010753Z AUTO 33004KT 7SM OVC004 16/13 A2984 RMK AO2 SLP114 T01560133 402440122 TSNO
cycle: 8

Station Type Date Time Source
KSNS TAF 2022/10/01 06:30 UTC NOAA

TAF KSNS 010529Z 0106/0206 29010KT P6SM OVC005
FM011730 31010KT P6SM SKC
FM011900 29012KT P6SM SKC
FM020300 29010KT P6SM OVC008

Example: see airport list